• Join FlightAware (Why Join?)
  • Login
  • US Flag 
02:16PM EDT


 

Airport Tracker/Info


-or-


 

Live Flight TrackerFlight Track Log ✈ AAY861 ✈ 26-Apr-2014 ✈ KLEX - KPIE

Flight Track Log - Related Links

Times and Time Zones

All times are in EDT time to prevent confusion due to time zone crossing. See the AAY861 flight status page for this flight to view local times or setup timezone preferences in your user account.

Time Position Orientation Groundspeed Altitude Reporting Facility
EDT Latitude Longitude Course Direction KTS MPH feet Rate Location/Type
10:53AM 37.8958 -84.6217 161° South 275 316 6,000  Level Indianapolis Center
10:54AM 37.8192 -84.5878 161° South 287 330 6,500 1,680 Climbing Indianapolis Center
10:55AM 37.7403 -84.5647 167° South 287 330 9,500 2,340 Climbing Indianapolis Center
10:56AM 37.6417 -84.5239 162° South 316 364 11,400 2,100 Climbing Indianapolis Center
10:57AM 37.5350 -84.4886 165° South 377 434 13,900 2,400 Climbing Indianapolis Center
10:58AM 37.4272 -84.4450 162° South 400 460 16,400 2,280 Climbing Indianapolis Center
10:59AM 37.3150 -84.4019 163° South 415 478 18,700 2,100 Climbing Indianapolis Center
11:00AM 37.1978 -84.3597 164° South 429 494 20,800 1,680 Climbing Indianapolis Center
11:01AM 37.0772 -84.3158 164° South 444 511 22,200 1,620 Climbing Indianapolis Center
11:02AM 36.9303 -84.2647 164° South 464 534 24,200 1,740 Climbing Indianapolis Center
11:03AM 36.8006 -84.2169 164° South 477 549 25,800 1,560 Climbing Indianapolis Center
11:04AM 36.6706 -84.1692 164° South 481 554 27,500 1,380 Climbing Indianapolis Center
11:05AM 36.5403 -84.1217 164° South 484 557 28,700 1,440 Climbing Indianapolis Center
11:06AM 36.3967 -84.0689 164° South 497 572 30,500 1,560 Climbing Indianapolis Center
11:07AM 36.2644 -84.0197 163° South 498 573 32,000 1,200 Climbing Indianapolis Center
11:08AM 36.1325 -83.9747 165° South 495 570 33,000 540 Climbing Indianapolis Center
11:09AM 36.0478 -83.9464 165° South 495 570 33,000  Level Atlanta Center
11:10AM 35.9183 -83.9056 166° South 495 570 33,000  Level Atlanta Center
11:11AM 35.7869 -83.9183 185° South 477 549 33,000  Level Atlanta Center
11:12AM 35.6639 -83.9519 193° South 469 540 33,000  Level Atlanta Center
11:13AM 35.5367 -83.9903 194° South 469 540 33,000  Level Atlanta Center
11:14AM 35.4136 -84.0183 191° South 469 540 33,000  Level Atlanta Center
11:15AM 35.2906 -84.0464 191° South 464 534 33,000  Level Atlanta Center
11:16AM 35.1633 -84.0717 189° South 464 534 33,000  Level Atlanta Center
11:17AM 35.0403 -84.1047 192° South 464 534 33,000  Level Atlanta Center
11:18AM 34.9192 -84.1375 193° South 457 526 33,000  Level Atlanta Center
11:19AM 34.7958 -84.1653 190° South 452 520 33,000  Level Atlanta Center
11:20AM 34.6625 -84.1928 190° South 452 520 33,000  Level Atlanta Center
11:21AM 34.5331 -84.2203 190° South 450 518 33,000  Level Atlanta Center
11:22AM 34.4244 -84.2478 192° South 457 526 33,000  Level Atlanta Center
11:23AM 34.3033 -84.2803 192° South 452 520 33,000  Level Atlanta Center
11:24AM 34.1758 -84.3100 191° South 457 526 33,000  Level Atlanta Center
11:25AM 34.0506 -84.3372 190° South 457 526 33,000  Level Atlanta Center
11:26AM 33.9233 -84.3667 191° South 467 537 33,000  Level Atlanta Center
11:27AM 33.7978 -84.3989 192° South 467 537 33,000  Level Atlanta Center
11:28AM 33.6747 -84.4281 191° South 467 537 33,000  Level Atlanta Center
11:29AM 33.5328 -84.4375 183° South 472 543 33,000  Level Atlanta Center
11:30AM 33.4033 -84.4319 178° South 462 532 33,000  Level Atlanta Center
11:31AM 33.2864 -84.4264 178° South 462 532 33,000  Level Atlanta Center
11:32AM 33.1569 -84.4283 181° South 462 532 33,000  Level Atlanta Center
11:33AM 33.0275 -84.4303 181° South 462 532 33,000  Level Atlanta Center
11:34AM 32.9003 -84.4272 179° South 456 525 33,000  Level Atlanta Center
11:35AM 32.7708 -84.4169 176° South 461 531 33,000  Level Atlanta Center
11:36AM 32.6394 -84.4139 179° South 461 531 33,000  Level Atlanta Center
11:37AM 32.5100 -84.4156 181° South 461 531 33,000  Level Atlanta Center
11:38AM 32.3806 -84.4128 179° South 461 531 33,000  Level Atlanta Center
11:39AM 32.2511 -84.4097 179° South 461 531 33,000  Level Atlanta Center
11:40AM 32.1239 -84.4067 179° South 461 531 33,000  Level Atlanta Center
11:40AM 32.0197 -84.4044 179° South 461 531 33,000  Level Jacksonville Center
11:41AM 31.8925 -84.4022 179° South 461 531 33,000  Level Jacksonville Center
11:42AM 31.7631 -84.4003 179° South 461 531 33,000  Level Jacksonville Center
11:43AM 31.6356 -84.3958 178° South 461 531 33,000  Level Jacksonville Center
11:44AM 31.5083 -84.3936 179° South 461 531 33,000  Level Jacksonville Center
11:45AM 31.3769 -84.3914 179° South 461 531 33,000  Level Jacksonville Center
11:46AM 31.2494 -84.3894 179° South 461 531 33,000  Level Jacksonville Center
11:47AM 31.1200 -84.3875 179° South 461 531 33,000  Level Jacksonville Center
11:48AM 30.9928 -84.3831 178° South 456 525 33,000  Level Jacksonville Center
11:49AM 30.8653 -84.3811 179° South 456 525 33,000  Level Jacksonville Center
11:50AM 30.7381 -84.3789 179° South 456 525 33,000  Level Jacksonville Center
11:51AM 30.6108 -84.3747 178° South 456 525 33,000  Level Jacksonville Center
11:52AM 30.4964 -84.3439 167° South 456 525 33,000  Level Jacksonville Center
11:53AM 30.3822 -84.2675 150° Southeast 461 531 33,000  Level Jacksonville Center
11:54AM 30.2703 -84.1867 148° Southeast 467 537 33,000  Level Jacksonville Center
11:55AM 30.1439 -84.1031 150° Southeast 467 537 33,000 -120 Level Jacksonville Center
11:56AM 30.0275 -84.0297 151° Southeast 472 543 32,800 -840 Descending Jacksonville Center
11:57AM 29.9217 -83.9639 152° Southeast 482 555 31,400 -1,500 Descending Jacksonville Center
11:58AM 29.8014 -83.8858 151° Southeast 482 555 29,800 -1,500 Descending Jacksonville Center
11:59AM 29.6850 -83.8081 150° Southeast 487 560 28,400 -1,140 Descending Jacksonville Center
12:00PM 29.5706 -83.7331 150° Southeast 482 555 27,600 -780 Descending Jacksonville Center
12:01PM 29.4561 -83.6631 152° Southeast 477 549 26,900 -900 Descending Jacksonville Center
12:02PM 29.3439 -83.5906 151° Southeast 472 543 25,900 -1,080 Descending Jacksonville Center
12:03PM 29.2317 -83.5161 150° Southeast 472 543 24,800 -1,380 Descending Jacksonville Center
12:04PM 29.1192 -83.4464 152° Southeast 467 537 23,200 -1,680 Descending Jacksonville Center
12:05PM 29.0108 -83.3769 151° Southeast 456 525 21,500 -1,620 Descending Jacksonville Center
12:06PM 28.9047 -83.3078 150° Southeast 449 517 20,000 -1,500 Descending Jacksonville Center
12:07PM 28.7986 -83.2408 151° Southeast 443 510 18,600 -1,380 Descending Jacksonville Center
12:08PM 28.6964 -83.1767 151° Southeast 432 497 17,300 -1,440 Descending Jacksonville Center
12:09PM 28.5833 -83.1000 149° Southeast 408 470 15,700 -1,500 Descending Tampa TRACON
12:10PM 28.4833 -83.0500 156° South 400 460 14,300 -1,440 Descending Tampa TRACON
12:11PM 28.4000 -82.9833 145° Southeast 388 447 12,900 -1,440 Descending Tampa TRACON
12:12PM 28.3000 -82.9333 156° South 381 438 11,500 -1,320 Descending Tampa TRACON
12:13PM 28.2167 -82.8667 145° Southeast 355 409 10,300 -1,200 Descending Tampa TRACON
12:14PM 28.1333 -82.8500 170° South 301 346 9,200 -1,620 Descending Tampa TRACON
12:15PM 28.0500 -82.8333 170° South 297 342 7,300 -1,920 Descending Tampa TRACON
12:16PM 27.9833 -82.8167 168° South 280 322 5,600 -1,740 Descending Tampa TRACON
12:17PM 27.9000 -82.8000 170° South 252 290 4,000 -960 Descending Tampa TRACON
12:18PM 27.8500 -82.8000 180° South 207 238 3,600 -720 Descending Tampa TRACON
12:19PM 27.7833 -82.7667 156° South 212 244 2,600 -840 Descending Tampa TRACON
12:20PM 27.7833 -82.7167 90° East 177 204 2,000 -300 Descending Tampa TRACON
12:21PM 27.8000 -82.6833 61° Northeast 151 174 2,000 -480 Level Tampa TRACON
12:22PM 27.8500 -82.6833 360° North 136 157 1,100 -840 Descending Tampa TRACON
12:23PM 27.8833 -82.6833 360° North 132 152 400 -720 Descending Tampa TRACON